sensor_id;sensor_type;location;lat;lon;timestamp;P1;durP1;ratioP1;P2;durP2;ratioP2
52708;SDS011;38606;52.986;6.980;2023-05-21T00:00:21;6.43;;;3.30;;
52708;SDS011;38606;52.986;6.980;2023-05-21T00:02:47;8.70;;;3.72;;
52708;SDS011;38606;52.986;6.980;2023-05-21T00:05:13;6.60;;;3.75;;
52708;SDS011;38606;52.986;6.980;2023-05-21T00:07:41;4.63;;;3.47;;
52708;SDS011;38606;52.986;6.980;2023-05-21T00:10:07;6.03;;;3.53;;
52708;SDS011;38606;52.986;6.980;2023-05-21T00:12:33;6.32;;;3.60;;
52708;SDS011;38606;52.986;6.980;2023-05-21T00:14:59;5.22;;;3.45;;
52708;SDS011;38606;52.986;6.980;2023-05-21T00:17:26;5.32;;;3.78;;
52708;SDS011;38606;52.986;6.980;2023-05-21T00:19:52;6.35;;;3.72;;
52708;SDS011;38606;52.986;6.980;2023-05-21T00:22:18;7.10;;;3.58;;
52708;SDS011;38606;52.986;6.980;2023-05-21T00:24:44;6.68;;;3.35;;
52708;SDS011;38606;52.986;6.980;2023-05-21T00:27:10;8.15;;;3.83;;
52708;SDS011;38606;52.986;6.980;2023-05-21T00:29:37;6.88;;;3.38;;
52708;SDS011;38606;52.986;6.980;2023-05-21T00:32:03;4.68;;;3.47;;
52708;SDS011;38606;52.986;6.980;2023-05-21T00:34:29;9.23;;;3.83;;
52708;SDS011;38606;52.986;6.980;2023-05-21T00:36:55;9.10;;;3.45;;
52708;SDS011;38606;52.986;6.980;2023-05-21T00:39:21;7.22;;;3.92;;
52708;SDS011;38606;52.986;6.980;2023-05-21T00:41:47;6.45;;;3.35;;
52708;SDS011;38606;52.986;6.980;2023-05-21T00:44:13;6.93;;;3.75;;
52708;SDS011;38606;52.986;6.980;2023-05-21T00:46:40;5.13;;;3.42;;
52708;SDS011;38606;52.986;6.980;2023-05-21T00:49:08;9.10;;;3.63;;
52708;SDS011;38606;52.986;6.980;2023-05-21T00:51:35;4.78;;;3.47;;
52708;SDS011;38606;52.986;6.980;2023-05-21T00:54:01;8.63;;;3.83;;
52708;SDS011;38606;52.986;6.980;2023-05-21T00:56:27;8.60;;;3.50;;
52708;SDS011;38606;52.986;6.980;2023-05-21T00:58:54;6.35;;;4.38;;
52708;SDS011;38606;52.986;6.980;2023-05-21T01:01:21;5.88;;;3.65;;
52708;SDS011;38606;52.986;6.980;2023-05-21T01:03:49;4.88;;;3.38;;
52708;SDS011;38606;52.986;6.980;2023-05-21T01:06:18;6.55;;;3.95;;
52708;SDS011;38606;52.986;6.980;2023-05-21T01:08:45;5.65;;;3.80;;
52708;SDS011;38606;52.986;6.980;2023-05-21T01:11:11;7.20;;;3.70;;
52708;SDS011;38606;52.986;6.980;2023-05-21T01:13:39;5.20;;;3.88;;
52708;SDS011;38606;52.986;6.980;2023-05-21T01:16:06;5.20;;;3.65;;
52708;SDS011;38606;52.986;6.980;2023-05-21T01:18:33;6.15;;;4.00;;
52708;SDS011;38606;52.986;6.980;2023-05-21T01:21:01;6.40;;;3.83;;
52708;SDS011;38606;52.986;6.980;2023-05-21T01:23:28;7.72;;;4.10;;
52708;SDS011;38606;52.986;6.980;2023-05-21T01:25:54;7.25;;;3.70;;
52708;SDS011;38606;52.986;6.980;2023-05-21T01:28:20;7.65;;;4.07;;
52708;SDS011;38606;52.986;6.980;2023-05-21T01:30:45;7.40;;;4.82;;
52708;SDS011;38606;52.986;6.980;2023-05-21T01:35:43;7.40;;;4.15;;
52708;SDS011;38606;52.986;6.980;2023-05-21T01:41:17;7.03;;;4.47;;
52708;SDS011;38606;52.986;6.980;2023-05-21T01:43:44;10.95;;;4.75;;
52708;SDS011;38606;52.986;6.980;2023-05-21T01:46:12;10.88;;;4.90;;
52708;SDS011;38606;52.986;6.980;2023-05-21T01:48:41;6.97;;;4.40;;
52708;SDS011;38606;52.986;6.980;2023-05-21T01:51:08;9.05;;;5.38;;
52708;SDS011;38606;52.986;6.980;2023-05-21T01:53:34;7.68;;;4.40;;
52708;SDS011;38606;52.986;6.980;2023-05-21T01:55:59;5.70;;;4.65;;
52708;SDS011;38606;52.986;6.980;2023-05-21T01:58:26;8.45;;;5.13;;
52708;SDS011;38606;52.986;6.980;2023-05-21T02:00:52;9.02;;;4.78;;
52708;SDS011;38606;52.986;6.980;2023-05-21T02:03:19;10.10;;;4.63;;
52708;SDS011;38606;52.986;6.980;2023-05-21T02:05:45;7.18;;;4.90;;
52708;SDS011;38606;52.986;6.980;2023-05-21T02:08:11;8.35;;;5.10;;
52708;SDS011;38606;52.986;6.980;2023-05-21T02:10:39;11.75;;;5.88;;
52708;SDS011;38606;52.986;6.980;2023-05-21T02:13:05;9.32;;;5.50;;
52708;SDS011;38606;52.986;6.980;2023-05-21T02:15:30;7.45;;;5.13;;
52708;SDS011;38606;52.986;6.980;2023-05-21T02:17:58;7.72;;;5.20;;
52708;SDS011;38606;52.986;6.980;2023-05-21T02:20:24;6.70;;;4.88;;
52708;SDS011;38606;52.986;6.980;2023-05-21T02:22:50;11.23;;;5.35;;
52708;SDS011;38606;52.986;6.980;2023-05-21T02:25:16;8.18;;;5.55;;
52708;SDS011;38606;52.986;6.980;2023-05-21T02:27:43;8.77;;;5.32;;
52708;SDS011;38606;52.986;6.980;2023-05-21T02:30:11;8.27;;;5.43;;
52708;SDS011;38606;52.986;6.980;2023-05-21T02:32:38;7.88;;;5.60;;
52708;SDS011;38606;52.986;6.980;2023-05-21T02:35:07;10.20;;;5.55;;
52708;SDS011;38606;52.986;6.980;2023-05-21T02:37:34;9.15;;;5.47;;
52708;SDS011;38606;52.986;6.980;2023-05-21T02:40:01;8.43;;;5.18;;
52708;SDS011;38606;52.986;6.980;2023-05-21T02:42:30;9.30;;;5.38;;
52708;SDS011;38606;52.986;6.980;2023-05-21T02:44:56;11.60;;;5.70;;
52708;SDS011;38606;52.986;6.980;2023-05-21T02:47:22;8.68;;;5.35;;
52708;SDS011;38606;52.986;6.980;2023-05-21T02:49:48;12.40;;;5.78;;
52708;SDS011;38606;52.986;6.980;2023-05-21T02:52:15;7.63;;;5.55;;
52708;SDS011;38606;52.986;6.980;2023-05-21T02:54:44;9.68;;;5.05;;
52708;SDS011;38606;52.986;6.980;2023-05-21T02:57:10;7.95;;;5.25;;
52708;SDS011;38606;52.986;6.980;2023-05-21T02:59:36;10.43;;;5.78;;
52708;SDS011;38606;52.986;6.980;2023-05-21T03:02:02;8.18;;;5.00;;
52708;SDS011;38606;52.986;6.980;2023-05-21T03:04:28;7.53;;;5.47;;
52708;SDS011;38606;52.986;6.980;2023-05-21T03:06:54;14.60;;;5.15;;
52708;SDS011;38606;52.986;6.980;2023-05-21T03:09:21;9.57;;;4.97;;
52708;SDS011;38606;52.986;6.980;2023-05-21T03:11:47;12.43;;;5.68;;
52708;SDS011;38606;52.986;6.980;2023-05-21T03:14:13;9.50;;;5.35;;
52708;SDS011;38606;52.986;6.980;2023-05-21T03:16:40;8.55;;;5.63;;
52708;SDS011;38606;52.986;6.980;2023-05-21T03:19:07;8.90;;;5.30;;
52708;SDS011;38606;52.986;6.980;2023-05-21T03:21:33;5.50;;;4.45;;
52708;SDS011;38606;52.986;6.980;2023-05-21T03:24:00;9.00;;;5.20;;
52708;SDS011;38606;52.986;6.980;2023-05-21T03:26:27;8.50;;;5.60;;
52708;SDS011;38606;52.986;6.980;2023-05-21T03:28:54;11.07;;;4.90;;
52708;SDS011;38606;52.986;6.980;2023-05-21T03:31:21;7.25;;;4.55;;
52708;SDS011;38606;52.986;6.980;2023-05-21T03:33:47;8.13;;;4.55;;
52708;SDS011;38606;52.986;6.980;2023-05-21T03:36:13;10.95;;;5.10;;
52708;SDS011;38606;52.986;6.980;2023-05-21T03:38:38;7.63;;;4.63;;
52708;SDS011;38606;52.986;6.980;2023-05-21T03:41:07;12.05;;;5.13;;
52708;SDS011;38606;52.986;6.980;2023-05-21T03:43:34;9.15;;;4.53;;
52708;SDS011;38606;52.986;6.980;2023-05-21T03:46:00;9.48;;;5.07;;
52708;SDS011;38606;52.986;6.980;2023-05-21T03:48:26;9.63;;;5.00;;
52708;SDS011;38606;52.986;6.980;2023-05-21T03:50:51;8.15;;;4.93;;
52708;SDS011;38606;52.986;6.980;2023-05-21T03:53:17;9.55;;;4.63;;
52708;SDS011;38606;52.986;6.980;2023-05-21T03:55:43;8.75;;;4.88;;
52708;SDS011;38606;52.986;6.980;2023-05-21T03:58:09;11.05;;;4.63;;
52708;SDS011;38606;52.986;6.980;2023-05-21T04:00:35;12.98;;;5.05;;
52708;SDS011;38606;52.986;6.980;2023-05-21T04:03:04;12.10;;;5.10;;
52708;SDS011;38606;52.986;6.980;2023-05-21T04:05:31;14.13;;;5.10;;
52708;SDS011;38606;52.986;6.980;2023-05-21T04:07:57;13.45;;;5.45;;
52708;SDS011;38606;52.986;6.980;2023-05-21T04:10:24;11.32;;;4.85;;
52708;SDS011;38606;52.986;6.980;2023-05-21T04:12:51;8.88;;;5.20;;
52708;SDS011;38606;52.986;6.980;2023-05-21T04:15:17;8.32;;;5.03;;
52708;SDS011;38606;52.986;6.980;2023-05-21T04:17:43;8.82;;;5.03;;
52708;SDS011;38606;52.986;6.980;2023-05-21T04:20:12;8.70;;;5.03;;
52708;SDS011;38606;52.986;6.980;2023-05-21T04:22:43;8.40;;;4.85;;
52708;SDS011;38606;52.986;6.980;2023-05-21T04:25:09;8.80;;;4.68;;
52708;SDS011;38606;52.986;6.980;2023-05-21T04:27:35;12.80;;;5.30;;
52708;SDS011;38606;52.986;6.980;2023-05-21T04:30:01;9.68;;;5.20;;
52708;SDS011;38606;52.986;6.980;2023-05-21T04:32:28;11.57;;;4.97;;
52708;SDS011;38606;52.986;6.980;2023-05-21T04:34:55;9.18;;;4.97;;
52708;SDS011;38606;52.986;6.980;2023-05-21T04:37:21;9.05;;;5.03;;
52708;SDS011;38606;52.986;6.980;2023-05-21T04:39:50;9.85;;;5.20;;
52708;SDS011;38606;52.986;6.980;2023-05-21T04:42:16;10.60;;;5.10;;
52708;SDS011;38606;52.986;6.980;2023-05-21T04:44:43;7.93;;;4.88;;
52708;SDS011;38606;52.986;6.980;2023-05-21T04:47:09;10.45;;;4.68;;
52708;SDS011;38606;52.986;6.980;2023-05-21T04:49:36;7.57;;;4.70;;
52708;SDS011;38606;52.986;6.980;2023-05-21T04:52:02;8.85;;;5.22;;
52708;SDS011;38606;52.986;6.980;2023-05-21T04:54:28;10.20;;;5.05;;
52708;SDS011;38606;52.986;6.980;2023-05-21T04:56:55;8.13;;;4.88;;
52708;SDS011;38606;52.986;6.980;2023-05-21T04:59:22;10.38;;;5.05;;
52708;SDS011;38606;52.986;6.980;2023-05-21T05:01:47;9.98;;;4.65;;
52708;SDS011;38606;52.986;6.980;2023-05-21T05:04:13;10.02;;;5.13;;
52708;SDS011;38606;52.986;6.980;2023-05-21T05:06:39;10.40;;;4.63;;
52708;SDS011;38606;52.986;6.980;2023-05-21T05:09:05;8.70;;;4.50;;
52708;SDS011;38606;52.986;6.980;2023-05-21T05:11:30;9.68;;;4.25;;
52708;SDS011;38606;52.986;6.980;2023-05-21T05:13:56;8.80;;;4.53;;
52708;SDS011;38606;52.986;6.980;2023-05-21T05:16:22;7.63;;;4.20;;
52708;SDS011;38606;52.986;6.980;2023-05-21T05:18:50;8.02;;;4.13;;
52708;SDS011;38606;52.986;6.980;2023-05-21T05:21:17;7.70;;;4.30;;
52708;SDS011;38606;52.986;6.980;2023-05-21T05:23:42;10.50;;;4.55;;
52708;SDS011;38606;52.986;6.980;2023-05-21T05:26:09;8.75;;;4.50;;
52708;SDS011;38606;52.986;6.980;2023-05-21T05:28:35;8.88;;;4.20;;
52708;SDS011;38606;52.986;6.980;2023-05-21T05:31:01;9.98;;;4.45;;
52708;SDS011;38606;52.986;6.980;2023-05-21T05:33:26;10.13;;;4.50;;
52708;SDS011;38606;52.986;6.980;2023-05-21T05:35:52;8.85;;;4.10;;
52708;SDS011;38606;52.986;6.980;2023-05-21T05:38:18;8.88;;;4.25;;
52708;SDS011;38606;52.986;6.980;2023-05-21T05:40:43;5.60;;;3.95;;
52708;SDS011;38606;52.986;6.980;2023-05-21T05:43:09;10.18;;;3.80;;
52708;SDS011;38606;52.986;6.980;2023-05-21T05:45:35;5.78;;;3.85;;
52708;SDS011;38606;52.986;6.980;2023-05-21T05:48:01;7.07;;;4.03;;
52708;SDS011;38606;52.986;6.980;2023-05-21T05:50:26;8.85;;;3.60;;
52708;SDS011;38606;52.986;6.980;2023-05-21T05:52:52;9.23;;;4.15;;
52708;SDS011;38606;52.986;6.980;2023-05-21T05:55:18;9.27;;;3.78;;
52708;SDS011;38606;52.986;6.980;2023-05-21T05:57:43;7.40;;;3.60;;
52708;SDS011;38606;52.986;6.980;2023-05-21T06:00:09;9.32;;;3.95;;
52708;SDS011;38606;52.986;6.980;2023-05-21T06:02:36;8.05;;;3.72;;
52708;SDS011;38606;52.986;6.980;2023-05-21T06:05:02;11.48;;;3.85;;
52708;SDS011;38606;52.986;6.980;2023-05-21T06:07:28;8.40;;;3.67;;
52708;SDS011;38606;52.986;6.980;2023-05-21T06:09:54;5.28;;;3.40;;
52708;SDS011;38606;52.986;6.980;2023-05-21T06:12:19;9.38;;;3.10;;
52708;SDS011;38606;52.986;6.980;2023-05-21T06:14:45;6.50;;;3.80;;
52708;SDS011;38606;52.986;6.980;2023-05-21T06:17:13;9.00;;;3.80;;
52708;SDS011;38606;52.986;6.980;2023-05-21T06:19:39;10.60;;;3.55;;
52708;SDS011;38606;52.986;6.980;2023-05-21T06:22:05;7.03;;;3.80;;
52708;SDS011;38606;52.986;6.980;2023-05-21T06:24:30;7.95;;;3.85;;
52708;SDS011;38606;52.986;6.980;2023-05-21T06:26:56;7.95;;;3.78;;
52708;SDS011;38606;52.986;6.980;2023-05-21T06:29:22;8.82;;;3.63;;
52708;SDS011;38606;52.986;6.980;2023-05-21T06:31:48;7.95;;;3.60;;
52708;SDS011;38606;52.986;6.980;2023-05-21T06:34:13;6.72;;;4.00;;
52708;SDS011;38606;52.986;6.980;2023-05-21T06:36:39;7.88;;;4.10;;
52708;SDS011;38606;52.986;6.980;2023-05-21T06:39:05;7.18;;;3.90;;
52708;SDS011;38606;52.986;6.980;2023-05-21T06:41:30;7.38;;;4.05;;
52708;SDS011;38606;52.986;6.980;2023-05-21T06:43:56;9.32;;;4.20;;
52708;SDS011;38606;52.986;6.980;2023-05-21T06:46:22;11.07;;;4.28;;
52708;SDS011;38606;52.986;6.980;2023-05-21T06:48:48;9.15;;;3.92;;
52708;SDS011;38606;52.986;6.980;2023-05-21T06:51:13;6.85;;;3.60;;
52708;SDS011;38606;52.986;6.980;2023-05-21T06:53:39;10.60;;;4.53;;
52708;SDS011;38606;52.986;6.980;2023-05-21T06:56:05;5.03;;;3.78;;
52708;SDS011;38606;52.986;6.980;2023-05-21T06:58:31;6.57;;;3.75;;
52708;SDS011;38606;52.986;6.980;2023-05-21T07:00:57;7.40;;;3.40;;
52708;SDS011;38606;52.986;6.980;2023-05-21T07:03:23;6.90;;;3.50;;
52708;SDS011;38606;52.986;6.980;2023-05-21T07:05:49;8.48;;;3.45;;
52708;SDS011;38606;52.986;6.980;2023-05-21T07:08:14;7.85;;;3.83;;
52708;SDS011;38606;52.986;6.980;2023-05-21T07:10:41;8.52;;;3.58;;
52708;SDS011;38606;52.986;6.980;2023-05-21T07:13:06;8.50;;;3.80;;
52708;SDS011;38606;52.986;6.980;2023-05-21T07:15:32;8.45;;;3.72;;
52708;SDS011;38606;52.986;6.980;2023-05-21T07:17:58;6.28;;;3.72;;
52708;SDS011;38606;52.986;6.980;2023-05-21T07:20:24;6.60;;;3.85;;
52708;SDS011;38606;52.986;6.980;2023-05-21T07:22:49;7.65;;;3.65;;
52708;SDS011;38606;52.986;6.980;2023-05-21T07:25:15;7.13;;;3.83;;
52708;SDS011;38606;52.986;6.980;2023-05-21T07:27:41;5.72;;;3.53;;
52708;SDS011;38606;52.986;6.980;2023-05-21T07:30:07;9.20;;;4.00;;
52708;SDS011;38606;52.986;6.980;2023-05-21T07:32:33;8.95;;;4.10;;
52708;SDS011;38606;52.986;6.980;2023-05-21T07:34:59;7.57;;;3.67;;
52708;SDS011;38606;52.986;6.980;2023-05-21T07:37:28;8.68;;;3.97;;
52708;SDS011;38606;52.986;6.980;2023-05-21T07:39:55;8.35;;;4.00;;
52708;SDS011;38606;52.986;6.980;2023-05-21T07:42:22;6.50;;;3.85;;
52708;SDS011;38606;52.986;6.980;2023-05-21T07:44:48;5.82;;;3.80;;
52708;SDS011;38606;52.986;6.980;2023-05-21T07:47:14;7.78;;;4.18;;
52708;SDS011;38606;52.986;6.980;2023-05-21T07:49:40;9.75;;;3.58;;
52708;SDS011;38606;52.986;6.980;2023-05-21T07:52:06;6.40;;;4.03;;
52708;SDS011;38606;52.986;6.980;2023-05-21T07:54:31;6.25;;;3.70;;
52708;SDS011;38606;52.986;6.980;2023-05-21T07:56:57;7.60;;;3.80;;
52708;SDS011;38606;52.986;6.980;2023-05-21T07:59:23;6.07;;;3.63;;
52708;SDS011;38606;52.986;6.980;2023-05-21T08:01:50;7.75;;;4.00;;
52708;SDS011;38606;52.986;6.980;2023-05-21T08:04:16;9.43;;;4.13;;
52708;SDS011;38606;52.986;6.980;2023-05-21T08:06:41;5.55;;;3.92;;
52708;SDS011;38606;52.986;6.980;2023-05-21T08:09:07;8.35;;;4.13;;
52708;SDS011;38606;52.986;6.980;2023-05-21T08:11:33;9.05;;;3.72;;
52708;SDS011;38606;52.986;6.980;2023-05-21T08:13:58;9.63;;;4.00;;
52708;SDS011;38606;52.986;6.980;2023-05-21T08:16:24;7.97;;;3.72;;
52708;SDS011;38606;52.986;6.980;2023-05-21T08:18:50;7.43;;;4.20;;
52708;SDS011;38606;52.986;6.980;2023-05-21T08:21:16;7.18;;;3.78;;
52708;SDS011;38606;52.986;6.980;2023-05-21T08:23:42;9.40;;;4.07;;
52708;SDS011;38606;52.986;6.980;2023-05-21T08:26:08;6.20;;;3.63;;
52708;SDS011;38606;52.986;6.980;2023-05-21T08:28:37;11.15;;;4.18;;
52708;SDS011;38606;52.986;6.980;2023-05-21T08:31:03;9.32;;;4.05;;
52708;SDS011;38606;52.986;6.980;2023-05-21T08:33:29;8.90;;;4.10;;
52708;SDS011;38606;52.986;6.980;2023-05-21T08:35:55;8.40;;;3.92;;
52708;SDS011;38606;52.986;6.980;2023-05-21T08:38:20;6.57;;;4.20;;
52708;SDS011;38606;52.986;6.980;2023-05-21T08:40:46;8.73;;;3.78;;
52708;SDS011;38606;52.986;6.980;2023-05-21T08:43:15;8.68;;;3.72;;
52708;SDS011;38606;52.986;6.980;2023-05-21T08:45:41;10.95;;;4.53;;
52708;SDS011;38606;52.986;6.980;2023-05-21T08:48:10;8.77;;;3.80;;
52708;SDS011;38606;52.986;6.980;2023-05-21T08:50:37;6.57;;;4.25;;
52708;SDS011;38606;52.986;6.980;2023-05-21T08:53:03;8.38;;;4.40;;
52708;SDS011;38606;52.986;6.980;2023-05-21T08:55:29;6.20;;;4.20;;
52708;SDS011;38606;52.986;6.980;2023-05-21T08:57:56;9.20;;;4.10;;
52708;SDS011;38606;52.986;6.980;2023-05-21T09:00:22;9.57;;;4.32;;
52708;SDS011;38606;52.986;6.980;2023-05-21T09:02:48;10.40;;;4.38;;
52708;SDS011;38606;52.986;6.980;2023-05-21T09:05:18;6.60;;;4.15;;
52708;SDS011;38606;52.986;6.980;2023-05-21T09:10:51;6.97;;;4.38;;
52708;SDS011;38606;52.986;6.980;2023-05-21T09:13:17;10.40;;;4.68;;
52708;SDS011;38606;52.986;6.980;2023-05-21T09:15:44;9.52;;;4.60;;
52708;SDS011;38606;52.986;6.980;2023-05-21T09:18:11;8.43;;;4.28;;
52708;SDS011;38606;52.986;6.980;2023-05-21T09:20:39;7.30;;;4.00;;
52708;SDS011;38606;52.986;6.980;2023-05-21T09:23:06;8.35;;;4.47;;
52708;SDS011;38606;52.986;6.980;2023-05-21T09:25:43;6.93;;;4.53;;
52708;SDS011;38606;52.986;6.980;2023-05-21T09:28:11;8.40;;;4.93;;
52708;SDS011;38606;52.986;6.980;2023-05-21T09:30:42;8.27;;;5.18;;
52708;SDS011;38606;52.986;6.980;2023-05-21T09:33:08;8.70;;;5.68;;
52708;SDS011;38606;52.986;6.980;2023-05-21T09:35:35;6.30;;;4.65;;
52708;SDS011;38606;52.986;6.980;2023-05-21T09:38:02;8.27;;;5.18;;
52708;SDS011;38606;52.986;6.980;2023-05-21T09:40:33;6.88;;;4.47;;
52708;SDS011;38606;52.986;6.980;2023-05-21T09:42:59;10.55;;;5.07;;
52708;SDS011;38606;52.986;6.980;2023-05-21T09:45:25;10.30;;;5.65;;
52708;SDS011;38606;52.986;6.980;2023-05-21T09:47:52;8.60;;;5.13;;
52708;SDS011;38606;52.986;6.980;2023-05-21T09:50:23;10.02;;;6.50;;
52708;SDS011;38606;52.986;6.980;2023-05-21T09:52:51;7.72;;;4.85;;
52708;SDS011;38606;52.986;6.980;2023-05-21T09:55:23;11.00;;;5.20;;
52708;SDS011;38606;52.986;6.980;2023-05-21T09:57:51;8.98;;;5.20;;
52708;SDS011;38606;52.986;6.980;2023-05-21T10:00:24;10.98;;;5.20;;
52708;SDS011;38606;52.986;6.980;2023-05-21T10:03:01;7.90;;;5.72;;
52708;SDS011;38606;52.986;6.980;2023-05-21T10:05:33;9.30;;;5.38;;
52708;SDS011;38606;52.986;6.980;2023-05-21T10:08:00;8.48;;;6.35;;
52708;SDS011;38606;52.986;6.980;2023-05-21T10:10:27;12.57;;;6.15;;
52708;SDS011;38606;52.986;6.980;2023-05-21T10:12:57;11.25;;;6.50;;
52708;SDS011;38606;52.986;6.980;2023-05-21T10:15:54;10.98;;;6.57;;
52708;SDS011;38606;52.986;6.980;2023-05-21T10:18:25;8.48;;;6.57;;
52708;SDS011;38606;52.986;6.980;2023-05-21T10:20:52;11.55;;;6.97;;
52708;SDS011;38606;52.986;6.980;2023-05-21T10:23:19;8.93;;;6.25;;
52708;SDS011;38606;52.986;6.980;2023-05-21T10:25:46;11.73;;;6.13;;
52708;SDS011;38606;52.986;6.980;2023-05-21T10:28:15;13.27;;;7.07;;
52708;SDS011;38606;52.986;6.980;2023-05-21T10:30:41;9.63;;;6.30;;
52708;SDS011;38606;52.986;6.980;2023-05-21T10:33:08;11.95;;;6.68;;
52708;SDS011;38606;52.986;6.980;2023-05-21T10:35:36;11.20;;;7.20;;
52708;SDS011;38606;52.986;6.980;2023-05-21T10:38:04;11.23;;;7.25;;
52708;SDS011;38606;52.986;6.980;2023-05-21T10:40:32;12.63;;;8.13;;
52708;SDS011;38606;52.986;6.980;2023-05-21T10:56:38;12.75;;;8.98;;
52708;SDS011;38606;52.986;6.980;2023-05-21T11:01:47;15.93;;;9.00;;
52708;SDS011;38606;52.986;6.980;2023-05-21T11:04:24;12.60;;;9.13;;
52708;SDS011;38606;52.986;6.980;2023-05-21T11:06:51;14.20;;;8.63;;
52708;SDS011;38606;52.986;6.980;2023-05-21T11:09:16;13.73;;;9.68;;
52708;SDS011;38606;52.986;6.980;2023-05-21T11:11:52;18.73;;;10.30;;
52708;SDS011;38606;52.986;6.980;2023-05-21T11:17:11;16.65;;;10.43;;
52708;SDS011;38606;52.986;6.980;2023-05-21T11:19:41;13.55;;;9.85;;
52708;SDS011;38606;52.986;6.980;2023-05-21T11:22:29;17.98;;;10.02;;
52708;SDS011;38606;52.986;6.980;2023-05-21T11:24:54;17.50;;;11.70;;
52708;SDS011;38606;52.986;6.980;2023-05-21T11:27:29;16.52;;;10.73;;
52708;SDS011;38606;52.986;6.980;2023-05-21T11:30:05;14.68;;;9.88;;
52708;SDS011;38606;52.986;6.980;2023-05-21T11:32:39;13.48;;;10.00;;
52708;SDS011;38606;52.986;6.980;2023-05-21T11:35:26;19.80;;;11.48;;
52708;SDS011;38606;52.986;6.980;2023-05-21T11:37:52;14.85;;;11.77;;
52708;SDS011;38606;52.986;6.980;2023-05-21T11:40:21;21.00;;;11.48;;
52708;SDS011;38606;52.986;6.980;2023-05-21T11:42:53;17.15;;;12.10;;
52708;SDS011;38606;52.986;6.980;2023-05-21T11:45:20;16.98;;;12.07;;
52708;SDS011;38606;52.986;6.980;2023-05-21T11:47:48;17.45;;;11.75;;
52708;SDS011;38606;52.986;6.980;2023-05-21T11:50:15;17.33;;;12.10;;
52708;SDS011;38606;52.986;6.980;2023-05-21T11:52:42;17.90;;;12.40;;
52708;SDS011;38606;52.986;6.980;2023-05-21T11:55:09;20.58;;;12.88;;
52708;SDS011;38606;52.986;6.980;2023-05-21T11:57:35;17.25;;;12.52;;
52708;SDS011;38606;52.986;6.980;2023-05-21T12:00:02;16.00;;;12.18;;
52708;SDS011;38606;52.986;6.980;2023-05-21T12:02:49;19.38;;;12.60;;
52708;SDS011;38606;52.986;6.980;2023-05-21T12:05:15;17.00;;;11.95;;
52708;SDS011;38606;52.986;6.980;2023-05-21T12:07:41;18.10;;;12.32;;
52708;SDS011;38606;52.986;6.980;2023-05-21T12:10:10;19.00;;;12.52;;
52708;SDS011;38606;52.986;6.980;2023-05-21T12:12:36;19.33;;;13.70;;
52708;SDS011;38606;52.986;6.980;2023-05-21T12:15:02;18.05;;;12.82;;
52708;SDS011;38606;52.986;6.980;2023-05-21T12:17:29;18.83;;;12.65;;
52708;SDS011;38606;52.986;6.980;2023-05-21T12:19:55;17.10;;;13.73;;
52708;SDS011;38606;52.986;6.980;2023-05-21T12:22:22;18.75;;;13.52;;
52708;SDS011;38606;52.986;6.980;2023-05-21T12:24:48;23.35;;;14.32;;
52708;SDS011;38606;52.986;6.980;2023-05-21T12:27:15;19.08;;;13.32;;
52708;SDS011;38606;52.986;6.980;2023-05-21T12:29:43;18.63;;;13.35;;
52708;SDS011;38606;52.986;6.980;2023-05-21T12:32:11;20.25;;;14.27;;
52708;SDS011;38606;52.986;6.980;2023-05-21T12:34:38;18.13;;;13.60;;
52708;SDS011;38606;52.986;6.980;2023-05-21T12:37:09;18.80;;;13.48;;
52708;SDS011;38606;52.986;6.980;2023-05-21T12:39:37;18.13;;;14.30;;
52708;SDS011;38606;52.986;6.980;2023-05-21T12:42:04;20.15;;;13.10;;
52708;SDS011;38606;52.986;6.980;2023-05-21T12:44:31;24.10;;;14.80;;
52708;SDS011;38606;52.986;6.980;2023-05-21T12:46:56;20.90;;;15.55;;
52708;SDS011;38606;52.986;6.980;2023-05-21T12:49:30;18.02;;;13.57;;
52708;SDS011;38606;52.986;6.980;2023-05-21T12:52:01;22.33;;;15.90;;
52708;SDS011;38606;52.986;6.980;2023-05-21T12:54:32;19.77;;;13.95;;
52708;SDS011;38606;52.986;6.980;2023-05-21T12:57:20;21.95;;;14.57;;
52708;SDS011;38606;52.986;6.980;2023-05-21T12:59:56;19.95;;;14.88;;
52708;SDS011;38606;52.986;6.980;2023-05-21T13:02:33;21.85;;;15.73;;
52708;SDS011;38606;52.986;6.980;2023-05-21T13:05:03;21.15;;;15.55;;
52708;SDS011;38606;52.986;6.980;2023-05-21T13:07:31;19.65;;;15.20;;
52708;SDS011;38606;52.986;6.980;2023-05-21T13:10:00;24.23;;;14.88;;
52708;SDS011;38606;52.986;6.980;2023-05-21T13:12:30;23.88;;;15.50;;
52708;SDS011;38606;52.986;6.980;2023-05-21T13:14:57;24.00;;;15.07;;
52708;SDS011;38606;52.986;6.980;2023-05-21T13:17:25;37.60;;;15.73;;
52708;SDS011;38606;52.986;6.980;2023-05-21T13:22:43;22.40;;;14.88;;
52708;SDS011;38606;52.986;6.980;2023-05-21T13:25:23;22.42;;;16.65;;
52708;SDS011;38606;52.986;6.980;2023-05-21T13:27:52;19.95;;;16.02;;
52708;SDS011;38606;52.986;6.980;2023-05-21T13:30:19;29.77;;;17.42;;
52708;SDS011;38606;52.986;6.980;2023-05-21T13:32:45;22.98;;;16.33;;
52708;SDS011;38606;52.986;6.980;2023-05-21T13:35:12;21.20;;;15.65;;
52708;SDS011;38606;52.986;6.980;2023-05-21T13:37:40;26.30;;;16.08;;
52708;SDS011;38606;52.986;6.980;2023-05-21T13:40:07;22.48;;;15.25;;
52708;SDS011;38606;52.986;6.980;2023-05-21T13:42:35;20.90;;;15.88;;
52708;SDS011;38606;52.986;6.980;2023-05-21T13:45:04;23.73;;;16.30;;
52708;SDS011;38606;52.986;6.980;2023-05-21T13:47:31;21.67;;;16.17;;
52708;SDS011;38606;52.986;6.980;2023-05-21T13:49:57;20.90;;;15.32;;
52708;SDS011;38606;52.986;6.980;2023-05-21T13:52:23;20.90;;;15.52;;
52708;SDS011;38606;52.986;6.980;2023-05-21T13:54:49;19.55;;;14.70;;
52708;SDS011;38606;52.986;6.980;2023-05-21T13:57:15;21.60;;;15.27;;
52708;SDS011;38606;52.986;6.980;2023-05-21T13:59:40;22.88;;;15.55;;
52708;SDS011;38606;52.986;6.980;2023-05-21T14:02:09;19.08;;;14.85;;
52708;SDS011;38606;52.986;6.980;2023-05-21T14:04:35;18.45;;;14.10;;
52708;SDS011;38606;52.986;6.980;2023-05-21T14:07:01;16.60;;;12.38;;
52708;SDS011;38606;52.986;6.980;2023-05-21T14:09:28;19.38;;;13.07;;
52708;SDS011;38606;52.986;6.980;2023-05-21T14:11:56;16.98;;;12.77;;
52708;SDS011;38606;52.986;6.980;2023-05-21T14:14:23;14.07;;;11.10;;
52708;SDS011;38606;52.986;6.980;2023-05-21T14:16:49;17.50;;;12.60;;
52708;SDS011;38606;52.986;6.980;2023-05-21T14:19:15;19.23;;;13.48;;
52708;SDS011;38606;52.986;6.980;2023-05-21T14:21:41;15.60;;;12.95;;
52708;SDS011;38606;52.986;6.980;2023-05-21T14:24:07;16.23;;;11.90;;
52708;SDS011;38606;52.986;6.980;2023-05-21T14:26:33;23.27;;;15.02;;
52708;SDS011;38606;52.986;6.980;2023-05-21T14:29:03;19.00;;;14.40;;
52708;SDS011;38606;52.986;6.980;2023-05-21T14:31:30;19.52;;;13.45;;
52708;SDS011;38606;52.986;6.980;2023-05-21T14:33:55;23.17;;;13.65;;
52708;SDS011;38606;52.986;6.980;2023-05-21T14:36:21;18.75;;;14.10;;
52708;SDS011;38606;52.986;6.980;2023-05-21T14:38:47;20.85;;;14.30;;
52708;SDS011;38606;52.986;6.980;2023-05-21T14:41:12;21.40;;;15.00;;
52708;SDS011;38606;52.986;6.980;2023-05-21T14:43:38;25.15;;;14.88;;
52708;SDS011;38606;52.986;6.980;2023-05-21T14:46:04;21.70;;;14.63;;
52708;SDS011;38606;52.986;6.980;2023-05-21T14:48:30;19.98;;;14.75;;
52708;SDS011;38606;52.986;6.980;2023-05-21T14:50:55;20.20;;;15.32;;
52708;SDS011;38606;52.986;6.980;2023-05-21T14:53:21;20.33;;;14.95;;
52708;SDS011;38606;52.986;6.980;2023-05-21T14:55:47;21.45;;;15.50;;
52708;SDS011;38606;52.986;6.980;2023-05-21T14:58:13;22.38;;;16.00;;
52708;SDS011;38606;52.986;6.980;2023-05-21T15:00:38;20.60;;;16.25;;
52708;SDS011;38606;52.986;6.980;2023-05-21T15:03:04;20.73;;;15.00;;
52708;SDS011;38606;52.986;6.980;2023-05-21T15:05:30;24.73;;;16.52;;
52708;SDS011;38606;52.986;6.980;2023-05-21T15:07:57;21.13;;;15.07;;